sensor_id;sensor_type;location;lat;lon;timestamp;pressure;altitude;pressure_sealevel;temperature;humidity
7182;BME280;3632;42.724;23.298;2023-03-20T00:00:28;95687.66;;;6.05;74.15
7182;BME280;3632;42.724;23.298;2023-03-20T00:02:55;95685.66;;;6.26;72.30
7182;BME280;3632;42.724;23.298;2023-03-20T00:05:23;95725.88;;;6.92;71.96
7182;BME280;3632;42.724;23.298;2023-03-20T00:07:51;95722.91;;;6.99;71.53
7182;BME280;3632;42.724;23.298;2023-03-20T00:10:19;95603.00;;;6.40;70.86
7182;BME280;3632;42.724;23.298;2023-03-20T00:12:47;95719.75;;;7.24;70.73
7182;BME280;3632;42.724;23.298;2023-03-20T00:15:23;95709.31;;;7.00;70.95
7182;BME280;3632;42.724;23.298;2023-03-20T00:17:50;95716.91;;;6.86;70.93
7182;BME280;3632;42.724;23.298;2023-03-20T00:20:18;95649.22;;;6.28;71.84
7182;BME280;3632;42.724;23.298;2023-03-20T00:22:44;95576.88;;;6.10;71.11
7182;BME280;3632;42.724;23.298;2023-03-20T00:25:13;95711.88;;;7.14;70.30
7182;BME280;3632;42.724;23.298;2023-03-20T00:27:41;95705.25;;;7.26;69.14
7182;BME280;3632;42.724;23.298;2023-03-20T00:30:24;95707.72;;;7.27;69.04
7182;BME280;3632;42.724;23.298;2023-03-20T00:32:53;95711.78;;;7.30;69.17
7182;BME280;3632;42.724;23.298;2023-03-20T00:35:23;95436.53;;;5.72;68.28
7182;BME280;3632;42.724;23.298;2023-03-20T00:37:51;95729.94;;;6.19;70.14
7182;BME280;3632;42.724;23.298;2023-03-20T00:40:20;95708.50;;;6.40;72.14
7182;BME280;3632;42.724;23.298;2023-03-20T00:42:49;95537.88;;;5.53;71.71
7182;BME280;3632;42.724;23.298;2023-03-20T00:45:21;95707.69;;;6.24;71.61
7182;BME280;3632;42.724;23.298;2023-03-20T00:47:49;95702.81;;;6.21;72.94
7182;BME280;3632;42.724;23.298;2023-03-20T00:50:20;95639.56;;;6.05;72.95
7182;BME280;3632;42.724;23.298;2023-03-20T00:52:48;95731.19;;;6.57;71.84
7182;BME280;3632;42.724;23.298;2023-03-20T00:55:15;95699.63;;;6.63;71.25
7182;BME280;3632;42.724;23.298;2023-03-20T00:57:46;95603.34;;;6.05;71.24
7182;BME280;3632;42.724;23.298;2023-03-20T01:00:21;95725.09;;;6.75;71.47
7182;BME280;3632;42.724;23.298;2023-03-20T01:02:49;95696.63;;;6.86;70.03
7182;BME280;3632;42.724;23.298;2023-03-20T01:05:16;95695.44;;;6.77;70.17
7182;BME280;3632;42.724;23.298;2023-03-20T01:07:43;95689.81;;;6.72;70.51
7182;BME280;3632;42.724;23.298;2023-03-20T01:10:11;95698.53;;;6.37;71.41
7182;BME280;3632;42.724;23.298;2023-03-20T01:12:39;95681.63;;;6.67;71.33
7182;BME280;3632;42.724;23.298;2023-03-20T01:15:15;95706.44;;;6.47;71.57
7182;BME280;3632;42.724;23.298;2023-03-20T01:17:43;95683.56;;;6.18;72.09
7182;BME280;3632;42.724;23.298;2023-03-20T01:20:13;95686.25;;;6.00;73.92
7182;BME280;3632;42.724;23.298;2023-03-20T01:22:41;95679.13;;;6.22;73.56
7182;BME280;3632;42.724;23.298;2023-03-20T01:25:08;95682.56;;;6.36;72.58
7182;BME280;3632;42.724;23.298;2023-03-20T01:27:35;95686.13;;;6.48;71.98
7182;BME280;3632;42.724;23.298;2023-03-20T01:30:04;95680.69;;;6.54;72.02
7182;BME280;3632;42.724;23.298;2023-03-20T01:32:33;95682.72;;;6.63;70.88
7182;BME280;3632;42.724;23.298;2023-03-20T01:35:00;95680.94;;;6.65;70.43
7182;BME280;3632;42.724;23.298;2023-03-20T01:37:27;95650.72;;;6.17;71.02
7182;BME280;3632;42.724;23.298;2023-03-20T01:39:54;95559.28;;;5.77;71.34
7182;BME280;3632;42.724;23.298;2023-03-20T01:42:22;95686.56;;;6.55;70.99
7182;BME280;3632;42.724;23.298;2023-03-20T01:44:49;95695.56;;;6.60;70.93
7182;BME280;3632;42.724;23.298;2023-03-20T01:47:18;95692.38;;;6.57;70.68
7182;BME280;3632;42.724;23.298;2023-03-20T01:50:19;95695.66;;;5.97;72.86
7182;BME280;3632;42.724;23.298;2023-03-20T01:52:49;95592.00;;;5.18;73.50
7182;BME280;3632;42.724;23.298;2023-03-20T01:55:18;95701.69;;;5.95;73.97
7182;BME280;3632;42.724;23.298;2023-03-20T01:57:46;95701.19;;;6.04;73.42
7182;BME280;3632;42.724;23.298;2023-03-20T02:00:14;95692.13;;;6.16;72.83
7182;BME280;3632;42.724;23.298;2023-03-20T02:02:43;95397.16;;;4.30;72.70
7182;BME280;3632;42.724;23.298;2023-03-20T02:05:13;95653.75;;;5.61;73.11
7182;BME280;3632;42.724;23.298;2023-03-20T02:07:45;95629.00;;;5.19;74.33
7182;BME280;3632;42.724;23.298;2023-03-20T02:10:14;95686.97;;;5.22;75.87
7182;BME280;3632;42.724;23.298;2023-03-20T02:12:43;95640.66;;;4.71;76.62
7182;BME280;3632;42.724;23.298;2023-03-20T02:15:10;95689.44;;;4.89;78.01
7182;BME280;3632;42.724;23.298;2023-03-20T02:17:38;95701.25;;;4.88;78.75
7182;BME280;3632;42.724;23.298;2023-03-20T02:20:13;95691.09;;;5.23;77.76
7182;BME280;3632;42.724;23.298;2023-03-20T02:26:20;95685.13;;;5.41;76.61
7182;BME280;3632;42.724;23.298;2023-03-20T02:35:19;95697.97;;;5.69;75.20
7182;BME280;3632;42.724;23.298;2023-03-20T02:38:04;95698.50;;;5.91;74.36
7182;BME280;3632;42.724;23.298;2023-03-20T02:40:43;95732.94;;;5.61;75.23
7182;BME280;3632;42.724;23.298;2023-03-20T02:43:19;95689.19;;;5.43;75.90
7182;BME280;3632;42.724;23.298;2023-03-20T02:45:51;95689.59;;;5.36;76.83
7182;BME280;3632;42.724;23.298;2023-03-20T02:48:32;95686.44;;;5.48;76.28
7182;BME280;3632;42.724;23.298;2023-03-20T02:51:10;95688.25;;;5.13;77.46
7182;BME280;3632;42.724;23.298;2023-03-20T02:53:48;95676.97;;;5.36;76.87
7182;BME280;3632;42.724;23.298;2023-03-20T02:56:22;95679.25;;;5.56;75.70
7182;BME280;3632;42.724;23.298;2023-03-20T02:58:58;95678.47;;;5.71;75.15
7182;BME280;3632;42.724;23.298;2023-03-20T03:01:30;95673.75;;;5.81;75.20
7182;BME280;3632;42.724;23.298;2023-03-20T03:04:01;95553.28;;;4.69;75.22
7182;BME280;3632;42.724;23.298;2023-03-20T03:06:30;95595.44;;;5.17;75.24
7182;BME280;3632;42.724;23.298;2023-03-20T03:09:02;95675.88;;;5.73;74.82
7182;BME280;3632;42.724;23.298;2023-03-20T03:11:32;95677.34;;;5.77;74.23
7182;BME280;3632;42.724;23.298;2023-03-20T03:14:00;95678.63;;;5.84;74.51
7182;BME280;3632;42.724;23.298;2023-03-20T03:16:30;95676.56;;;5.92;74.06
7182;BME280;3632;42.724;23.298;2023-03-20T03:19:04;95599.66;;;5.47;73.55
7182;BME280;3632;42.724;23.298;2023-03-20T03:21:35;95666.88;;;5.83;73.48
7182;BME280;3632;42.724;23.298;2023-03-20T03:24:05;95679.31;;;6.03;73.27
7182;BME280;3632;42.724;23.298;2023-03-20T03:26:34;95379.97;;;3.55;72.97
7182;BME280;3632;42.724;23.298;2023-03-20T03:29:05;95696.53;;;5.96;72.63
7182;BME280;3632;42.724;23.298;2023-03-20T03:31:36;95672.78;;;6.15;72.17
7182;BME280;3632;42.724;23.298;2023-03-20T03:34:03;95681.84;;;6.19;71.94
7182;BME280;3632;42.724;23.298;2023-03-20T03:36:37;95675.56;;;5.94;72.98
7182;BME280;3632;42.724;23.298;2023-03-20T03:39:15;95699.69;;;5.84;73.37
7182;BME280;3632;42.724;23.298;2023-03-20T03:41:46;95683.03;;;5.65;74.83
7182;BME280;3632;42.724;23.298;2023-03-20T03:44:20;95744.03;;;5.26;75.38
7182;BME280;3632;42.724;23.298;2023-03-20T03:46:52;95645.78;;;5.20;75.02
7182;BME280;3632;42.724;23.298;2023-03-20T03:49:22;95680.41;;;5.50;74.33
7182;BME280;3632;42.724;23.298;2023-03-20T03:51:54;95677.91;;;5.18;75.28
7182;BME280;3632;42.724;23.298;2023-03-20T03:54:25;95370.19;;;2.43;76.85
7182;BME280;3632;42.724;23.298;2023-03-20T03:56:54;95681.03;;;5.05;76.98
7182;BME280;3632;42.724;23.298;2023-03-20T03:59:25;95673.47;;;4.88;78.17
7182;BME280;3632;42.724;23.298;2023-03-20T04:01:55;95606.03;;;4.23;79.08
7182;BME280;3632;42.724;23.298;2023-03-20T04:04:24;95599.56;;;4.00;79.35
7182;BME280;3632;42.724;23.298;2023-03-20T04:06:51;95690.69;;;4.11;79.99
7182;BME280;3632;42.724;23.298;2023-03-20T04:09:18;95619.66;;;3.85;81.04
7182;BME280;3632;42.724;23.298;2023-03-20T04:11:49;95478.16;;;2.66;81.61
7182;BME280;3632;42.724;23.298;2023-03-20T04:14:17;95668.16;;;3.90;82.73
7182;BME280;3632;42.724;23.298;2023-03-20T04:16:44;95627.84;;;3.52;83.10
7182;BME280;3632;42.724;23.298;2023-03-20T04:19:11;95660.00;;;3.66;84.25
7182;BME280;3632;42.724;23.298;2023-03-20T04:21:38;95654.94;;;3.66;84.72
7182;BME280;3632;42.724;23.298;2023-03-20T04:24:05;95730.00;;;3.78;84.76
7182;BME280;3632;42.724;23.298;2023-03-20T04:26:32;95540.72;;;3.30;83.84
7182;BME280;3632;42.724;23.298;2023-03-20T04:29:00;95725.50;;;4.22;82.53
7182;BME280;3632;42.724;23.298;2023-03-20T04:31:27;95669.63;;;4.47;81.98
7182;BME280;3632;42.724;23.298;2023-03-20T04:33:54;95669.78;;;4.44;82.15
7182;BME280;3632;42.724;23.298;2023-03-20T04:36:21;95601.38;;;4.16;81.68
7182;BME280;3632;42.724;23.298;2023-03-20T04:38:48;95673.78;;;4.31;82.21
7182;BME280;3632;42.724;23.298;2023-03-20T04:41:15;95674.31;;;4.37;82.87
7182;BME280;3632;42.724;23.298;2023-03-20T04:43:41;95681.81;;;4.56;81.37
7182;BME280;3632;42.724;23.298;2023-03-20T04:46:10;95663.41;;;4.37;81.76
7182;BME280;3632;42.724;23.298;2023-03-20T04:48:36;95685.66;;;4.63;80.87
7182;BME280;3632;42.724;23.298;2023-03-20T04:51:03;95696.53;;;4.48;81.24
7182;BME280;3632;42.724;23.298;2023-03-20T04:53:30;95689.13;;;4.26;82.22
7182;BME280;3632;42.724;23.298;2023-03-20T04:55:57;95701.69;;;4.28;82.52
7182;BME280;3632;42.724;23.298;2023-03-20T04:58:24;95703.25;;;4.30;83.00
7182;BME280;3632;42.724;23.298;2023-03-20T05:00:50;95706.94;;;4.23;83.59
7182;BME280;3632;42.724;23.298;2023-03-20T05:03:19;95368.75;;;1.61;83.14
7182;BME280;3632;42.724;23.298;2023-03-20T05:05:45;95704.91;;;4.83;81.52
7182;BME280;3632;42.724;23.298;2023-03-20T05:08:12;95658.81;;;4.79;79.33
7182;BME280;3632;42.724;23.298;2023-03-20T05:10:39;95700.66;;;5.18;78.52
7182;BME280;3632;42.724;23.298;2023-03-20T05:13:05;95711.75;;;5.31;78.03
7182;BME280;3632;42.724;23.298;2023-03-20T05:15:32;95700.13;;;5.44;77.51
7182;BME280;3632;42.724;23.298;2023-03-20T05:17:59;95707.00;;;5.58;76.84
7182;BME280;3632;42.724;23.298;2023-03-20T05:20:27;95709.13;;;5.65;76.11
7182;BME280;3632;42.724;23.298;2023-03-20T05:22:54;95657.56;;;5.36;75.67
7182;BME280;3632;42.724;23.298;2023-03-20T05:25:21;95721.72;;;5.82;76.28
7182;BME280;3632;42.724;23.298;2023-03-20T05:27:48;95562.16;;;5.09;75.63
7182;BME280;3632;42.724;23.298;2023-03-20T05:30:15;95709.41;;;6.08;74.91
7182;BME280;3632;42.724;23.298;2023-03-20T05:32:41;95712.84;;;6.22;74.75
7182;BME280;3632;42.724;23.298;2023-03-20T05:35:09;95707.88;;;6.36;74.00
7182;BME280;3632;42.724;23.298;2023-03-20T05:37:38;95520.63;;;4.33;73.36
7182;BME280;3632;42.724;23.298;2023-03-20T05:40:06;95706.53;;;6.45;74.14
7182;BME280;3632;42.724;23.298;2023-03-20T05:42:33;95688.28;;;6.09;74.83
7182;BME280;3632;42.724;23.298;2023-03-20T05:45:00;95713.75;;;6.67;73.48
7182;BME280;3632;42.724;23.298;2023-03-20T05:47:26;95707.84;;;6.52;74.27
7182;BME280;3632;42.724;23.298;2023-03-20T05:49:53;95708.25;;;6.45;74.25
7182;BME280;3632;42.724;23.298;2023-03-20T05:52:20;95712.13;;;6.36;75.10
7182;BME280;3632;42.724;23.298;2023-03-20T05:54:48;95718.28;;;6.46;75.86
7182;BME280;3632;42.724;23.298;2023-03-20T05:57:15;95714.19;;;6.59;75.76
7182;BME280;3632;42.724;23.298;2023-03-20T05:59:42;95718.75;;;6.68;75.02
7182;BME280;3632;42.724;23.298;2023-03-20T06:02:09;95258.44;;;3.17;74.21
7182;BME280;3632;42.724;23.298;2023-03-20T06:04:36;95714.63;;;6.81;74.49
7182;BME280;3632;42.724;23.298;2023-03-20T06:07:04;95716.06;;;6.85;74.36
7182;BME280;3632;42.724;23.298;2023-03-20T06:09:30;95608.78;;;6.42;73.34
7182;BME280;3632;42.724;23.298;2023-03-20T06:11:59;95724.84;;;7.38;72.37
7182;BME280;3632;42.724;23.298;2023-03-20T06:14:26;95715.06;;;7.60;70.29
7182;BME280;3632;42.724;23.298;2023-03-20T06:16:53;95596.28;;;7.12;69.88
7182;BME280;3632;42.724;23.298;2023-03-20T06:19:21;95747.56;;;7.96;68.01
7182;BME280;3632;42.724;23.298;2023-03-20T06:21:48;95651.47;;;7.63;66.61
7182;BME280;3632;42.724;23.298;2023-03-20T06:24:15;95646.63;;;7.87;66.43
7182;BME280;3632;42.724;23.298;2023-03-20T06:26:42;95704.72;;;8.33;65.73
7182;BME280;3632;42.724;23.298;2023-03-20T06:29:10;95708.03;;;8.47;65.16
7182;BME280;3632;42.724;23.298;2023-03-20T06:31:37;95712.34;;;8.59;64.69
7182;BME280;3632;42.724;23.298;2023-03-20T06:34:04;95710.94;;;8.68;64.05
7182;BME280;3632;42.724;23.298;2023-03-20T06:36:30;95714.09;;;8.71;63.86
7182;BME280;3632;42.724;23.298;2023-03-20T06:38:57;95538.13;;;7.37;64.46
7182;BME280;3632;42.724;23.298;2023-03-20T06:41:24;95705.56;;;7.50;66.86
7182;BME280;3632;42.724;23.298;2023-03-20T06:43:51;95691.66;;;6.99;69.70
7182;BME280;3632;42.724;23.298;2023-03-20T06:46:19;95809.88;;;7.00;70.88
7182;BME280;3632;42.724;23.298;2023-03-20T06:48:45;95712.53;;;7.32;70.64
7182;BME280;3632;42.724;23.298;2023-03-20T06:51:13;95711.69;;;7.17;72.10
7182;BME280;3632;42.724;23.298;2023-03-20T06:53:40;95723.94;;;7.25;71.79
7182;BME280;3632;42.724;23.298;2023-03-20T06:56:09;95264.94;;;4.02;70.69
7182;BME280;3632;42.724;23.298;2023-03-20T06:58:36;95200.00;;;3.43;69.14
7182;BME280;3632;42.724;23.298;2023-03-20T07:01:07;95707.66;;;7.29;70.99
7182;BME280;3632;42.724;23.298;2023-03-20T07:03:36;95705.09;;;7.15;73.20
7182;BME280;3632;42.724;23.298;2023-03-20T07:06:03;95650.94;;;7.02;72.33
7182;BME280;3632;42.724;23.298;2023-03-20T07:08:31;95607.25;;;7.12;71.91
7182;BME280;3632;42.724;23.298;2023-03-20T07:10:58;95695.69;;;8.14;70.20
7182;BME280;3632;42.724;23.298;2023-03-20T07:13:25;95647.22;;;7.91;69.45
7182;BME280;3632;42.724;23.298;2023-03-20T07:15:54;95691.28;;;7.90;70.49
7182;BME280;3632;42.724;23.298;2023-03-20T07:18:22;95458.84;;;6.09;71.65
7182;BME280;3632;42.724;23.298;2023-03-20T07:20:52;95698.34;;;7.99;70.57
7182;BME280;3632;42.724;23.298;2023-03-20T07:23:18;95690.84;;;8.24;70.12
7182;BME280;3632;42.724;23.298;2023-03-20T07:25:45;95709.53;;;8.77;68.80
7182;BME280;3632;42.724;23.298;2023-03-20T07:28:12;95699.50;;;9.13;67.18
7182;BME280;3632;42.724;23.298;2023-03-20T07:30:40;95693.59;;;9.12;66.22
7182;BME280;3632;42.724;23.298;2023-03-20T07:33:07;95715.25;;;8.93;67.34
7182;BME280;3632;42.724;23.298;2023-03-20T07:35:34;95710.78;;;8.96;67.69
7182;BME280;3632;42.724;23.298;2023-03-20T07:38:02;95141.41;;;6.15;67.06
7182;BME280;3632;42.724;23.298;2023-03-20T07:40:29;95683.16;;;9.91;63.65
7182;BME280;3632;42.724;23.298;2023-03-20T07:42:56;95683.97;;;10.28;62.35
7182;BME280;3632;42.724;23.298;2023-03-20T07:45:23;95747.75;;;10.63;60.84
7182;BME280;3632;42.724;23.298;2023-03-20T07:47:49;95683.06;;;10.88;59.29
7182;BME280;3632;42.724;23.298;2023-03-20T07:50:16;95657.06;;;10.72;60.07
7182;BME280;3632;42.724;23.298;2023-03-20T07:52:45;95689.38;;;11.06;61.65
7182;BME280;3632;42.724;23.298;2023-03-20T07:55:14;95693.31;;;11.10;61.10
7182;BME280;3632;42.724;23.298;2023-03-20T07:57:43;95523.72;;;10.25;61.23
7182;BME280;3632;42.724;23.298;2023-03-20T08:00:11;95677.91;;;11.23;60.40
7182;BME280;3632;42.724;23.298;2023-03-20T08:02:38;95683.88;;;11.45;58.97
7182;BME280;3632;42.724;23.298;2023-03-20T08:05:05;95686.97;;;11.71;59.01
7182;BME280;3632;42.724;23.298;2023-03-20T08:07:32;95679.69;;;11.89;56.79
7182;BME280;3632;42.724;23.298;2023-03-20T08:10:00;95593.59;;;11.58;55.36
7182;BME280;3632;42.724;23.298;2023-03-20T08:12:28;95276.00;;;9.44;54.64
7182;BME280;3632;42.724;23.298;2023-03-20T08:14:55;95141.38;;;8.96;56.49
7182;BME280;3632;42.724;23.298;2023-03-20T08:17:21;95622.03;;;12.18;55.79
7182;BME280;3632;42.724;23.298;2023-03-20T08:19:48;95694.91;;;12.45;55.75
7182;BME280;3632;42.724;23.298;2023-03-20T08:22:15;95696.59;;;12.23;55.09
7182;BME280;3632;42.724;23.298;2023-03-20T08:24:42;95629.81;;;11.40;54.95
7182;BME280;3632;42.724;23.298;2023-03-20T08:27:09;95683.38;;;12.50;54.53
7182;BME280;3632;42.724;23.298;2023-03-20T08:29:37;95581.75;;;12.11;54.33
7182;BME280;3632;42.724;23.298;2023-03-20T08:32:04;95130.44;;;9.29;55.45
7182;BME280;3632;42.724;23.298;2023-03-20T08:34:31;95677.69;;;12.78;54.30
7182;BME280;3632;42.724;23.298;2023-03-20T08:36:58;95629.38;;;12.44;54.91
7182;BME280;3632;42.724;23.298;2023-03-20T08:39:25;95679.69;;;12.96;54.23
7182;BME280;3632;42.724;23.298;2023-03-20T08:41:52;95709.88;;;13.13;53.18
7182;BME280;3632;42.724;23.298;2023-03-20T08:44:18;95675.97;;;13.20;53.09
7182;BME280;3632;42.724;23.298;2023-03-20T08:46:47;95675.84;;;13.22;53.54
7182;BME280;3632;42.724;23.298;2023-03-20T08:49:14;95617.00;;;13.01;52.20
7182;BME280;3632;42.724;23.298;2023-03-20T08:51:41;95682.31;;;13.47;52.56
7182;BME280;3632;42.724;23.298;2023-03-20T08:54:09;95673.09;;;13.65;50.22
7182;BME280;3632;42.724;23.298;2023-03-20T08:56:35;95661.78;;;13.67;48.63
7182;BME280;3632;42.724;23.298;2023-03-20T08:59:02;95658.31;;;13.78;48.15
7182;BME280;3632;42.724;23.298;2023-03-20T09:01:29;95662.03;;;14.04;47.77
7182;BME280;3632;42.724;23.298;2023-03-20T09:03:57;95556.09;;;13.75;47.47
7182;BME280;3632;42.724;23.298;2023-03-20T09:06:24;95655.38;;;14.42;47.99
7182;BME280;3632;42.724;23.298;2023-03-20T09:08:53;95650.13;;;14.53;49.22
7182;BME280;3632;42.724;23.298;2023-03-20T09:11:19;95646.75;;;14.72;48.34
7182;BME280;3632;42.724;23.298;2023-03-20T09:13:46;95643.09;;;14.84;47.04
7182;BME280;3632;42.724;23.298;2023-03-20T09:16:13;95636.59;;;14.89;45.96
7182;BME280;3632;42.724;23.298;2023-03-20T09:18:39;95636.31;;;15.02;45.49
7182;BME280;3632;42.724;23.298;2023-03-20T09:21:08;95640.78;;;15.37;44.98
7182;BME280;3632;42.724;23.298;2023-03-20T09:23:34;95638.50;;;16.08;51.89
7182;BME280;3632;42.724;23.298;2023-03-20T09:26:01;95628.25;;;16.78;51.47
7182;BME280;3632;42.724;23.298;2023-03-20T09:28:28;95626.19;;;17.08;49.58
7182;BME280;3632;42.724;23.298;2023-03-20T09:30:55;95567.41;;;16.77;44.19
7182;BME280;3632;42.724;23.298;2023-03-20T09:33:23;95572.75;;;16.58;43.19
7182;BME280;3632;42.724;23.298;2023-03-20T09:35:50;95546.47;;;16.55;42.86
7182;BME280;3632;42.724;23.298;2023-03-20T09:38:18;95581.75;;;16.80;42.85
7182;BME280;3632;42.724;23.298;2023-03-20T09:40:53;95606.31;;;17.18;42.07
7182;BME280;3632;42.724;23.298;2023-03-20T09:43:47;95606.91;;;17.12;41.46
7182;BME280;3632;42.724;23.298;2023-03-20T09:46:27;95597.91;;;17.42;42.02
7182;BME280;3632;42.724;23.298;2023-03-20T09:49:01;95585.41;;;17.55;41.94
7182;BME280;3632;42.724;23.298;2023-03-20T09:51:37;95580.69;;;17.84;41.76
7182;BME280;3632;42.724;23.298;2023-03-20T09:54:16;95583.75;;;17.88;42.03
7182;BME280;3632;42.724;23.298;2023-03-20T09:56:48;95564.69;;;17.64;42.14
7182;BME280;3632;42.724;23.298;2023-03-20T09:59:17;95554.13;;;18.00;41.59
7182;BME280;3632;42.724;23.298;2023-03-20T10:01:49;95553.84;;;18.35;41.01
7182;BME280;3632;42.724;23.298;2023-03-20T10:04:18;95551.31;;;18.59;40.54
7182;BME280;3632;42.724;23.298;2023-03-20T10:06:45;95502.91;;;18.45;40.37
7182;BME280;3632;42.724;23.298;2023-03-20T10:09:18;95542.75;;;18.75;39.45
7182;BME280;3632;42.724;23.298;2023-03-20T10:12:01;95534.28;;;19.05;39.51
7182;BME280;3632;42.724;23.298;2023-03-20T10:14:39;95524.06;;;19.20;40.30
7182;BME280;3632;42.724;23.298;2023-03-20T10:17:22;95512.09;;;19.27;38.79
7182;BME280;3632;42.724;23.298;2023-03-20T10:19:57;95126.75;;;16.50;37.29
7182;BME280;3632;42.724;23.298;2023-03-20T10:22:26;95534.41;;;19.98;36.34
7182;BME280;3632;42.724;23.298;2023-03-20T10:25:02;95121.78;;;17.76;36.74
7182;BME280;3632;42.724;23.298;2023-03-20T10:27:33;95322.09;;;19.62;36.26
7182;BME280;3632;42.724;23.298;2023-03-20T10:30:14;95187.88;;;19.15;34.65
7182;BME280;3632;42.724;23.298;2023-03-20T10:32:49;95513.00;;;21.02;34.80
7182;BME280;3632;42.724;23.298;2023-03-20T10:35:22;95484.00;;;20.91;36.11
7182;BME280;3632;42.724;23.298;2023-03-20T10:38:00;95501.13;;;21.07;34.93
7182;BME280;3632;42.724;23.298;2023-03-20T10:40:33;95490.34;;;21.69;33.52
7182;BME280;3632;42.724;23.298;2023-03-20T10:43:03;95501.25;;;21.94;33.14
7182;BME280;3632;42.724;23.298;2023-03-20T10:45:37;95481.72;;;21.98;33.22
7182;BME280;3632;42.724;23.298;2023-03-20T10:48:13;95475.31;;;22.43;32.79
7182;BME280;3632;42.724;23.298;2023-03-20T10:50:44;95513.63;;;22.83;32.76
7182;BME280;3632;42.724;23.298;2023-03-20T10:53:22;95487.94;;;22.46;32.37
7182;BME280;3632;42.724;23.298;2023-03-20T10:55:54;95465.88;;;22.35;33.01
7182;BME280;3632;42.724;23.298;2023-03-20T10:58:25;95456.84;;;22.31;32.19
7182;BME280;3632;42.724;23.298;2023-03-20T11:00:54;95463.69;;;22.66;32.86
7182;BME280;3632;42.724;23.298;2023-03-20T11:03:24;95455.38;;;23.05;31.58
7182;BME280;3632;42.724;23.298;2023-03-20T11:05:54;95454.91;;;23.36;31.63
7182;BME280;3632;42.724;23.298;2023-03-20T11:08:24;95459.81;;;23.52;31.07
7182;BME280;3632;42.724;23.298;2023-03-20T11:10:59;95451.69;;;23.75;30.37
7182;BME280;3632;42.724;23.298;2023-03-20T11:13:30;95448.50;;;23.99;30.04
7182;BME280;3632;42.724;23.298;2023-03-20T11:16:08;95402.22;;;23.75;29.35
7182;BME280;3632;42.724;23.298;2023-03-20T11:18:36;95373.25;;;23.31;29.82
7182;BME280;3632;42.724;23.298;2023-03-20T11:21:03;95434.09;;;23.97;30.28
7182;BME280;3632;42.724;23.298;2023-03-20T11:23:33;95290.66;;;23.33;30.45
7182;BME280;3632;42.724;23.298;2023-03-20T11:26:04;95426.13;;;24.18;29.52
7182;BME280;3632;42.724;23.298;2023-03-20T11:28:33;95412.88;;;24.46;30.78
7182;BME280;3632;42.724;23.298;2023-03-20T11:31:03;95408.41;;;24.99;29.98
7182;BME280;3632;42.724;23.298;2023-03-20T11:33:33;95197.03;;;23.52;28.70
7182;BME280;3632;42.724;23.298;2023-03-20T11:36:10;95397.25;;;25.68;27.70
7182;BME280;3632;42.724;23.298;2023-03-20T11:38:42;95395.09;;;25.89;27.70
7182;BME280;3632;42.724;23.298;2023-03-20T11:41:16;94996.34;;;23.42;28.00
7182;BME280;3632;42.724;23.298;2023-03-20T11:43:43;95384.28;;;25.86;27.46
7182;BME280;3632;42.724;23.298;2023-03-20T11:46:12;95200.66;;;24.86;28.65
7182;BME280;3632;42.724;23.298;2023-03-20T11:48:40;95364.75;;;26.63;27.45
7182;BME280;3632;42.724;23.298;2023-03-20T11:51:08;95117.81;;;24.88;26.94
7182;BME280;3632;42.724;23.298;2023-03-20T11:53:38;95356.53;;;26.41;26.55
7182;BME280;3632;42.724;23.298;2023-03-20T11:56:08;95410.69;;;26.52;25.72
7182;BME280;3632;42.724;23.298;2023-03-20T11:58:45;95370.75;;;27.06;25.44
7182;BME280;3632;42.724;23.298;2023-03-20T12:01:13;95343.78;;;27.54;24.05
7182;BME280;3632;42.724;23.298;2023-03-20T12:03:45;95342.38;;;27.03;22.60
7182;BME280;3632;42.724;23.298;2023-03-20T12:06:19;94966.25;;;25.39;24.06
7182;BME280;3632;42.724;23.298;2023-03-20T12:08:50;95253.25;;;27.16;25.17
7182;BME280;3632;42.724;23.298;2023-03-20T12:11:35;95311.66;;;27.28;23.46
7182;BME280;3632;42.724;23.298;2023-03-20T12:14:17;94945.47;;;24.72;24.49
7182;BME280;3632;42.724;23.298;2023-03-20T12:16:56;95217.69;;;25.95;24.22
7182;BME280;3632;42.724;23.298;2023-03-20T12:19:29;95416.16;;;27.48;22.70
7182;BME280;3632;42.724;23.298;2023-03-20T12:22:01;95303.75;;;27.47;22.42
7182;BME280;3632;42.724;23.298;2023-03-20T12:24:36;94857.91;;;24.89;22.79
7182;BME280;3632;42.724;23.298;2023-03-20T12:27:16;95243.16;;;27.20;23.18
7182;BME280;3632;42.724;23.298;2023-03-20T12:29:51;95318.44;;;27.66;22.16
7182;BME280;3632;42.724;23.298;2023-03-20T12:32:23;95315.50;;;27.86;23.34
7182;BME280;3632;42.724;23.298;2023-03-20T12:34:53;95317.91;;;27.99;24.45
7182;BME280;3632;42.724;23.298;2023-03-20T12:37:21;95299.13;;;28.25;23.80
7182;BME280;3632;42.724;23.298;2023-03-20T12:39:52;95300.34;;;28.81;23.17
7182;BME280;3632;42.724;23.298;2023-03-20T12:42:30;95300.81;;;29.06;22.36
7182;BME280;3632;42.724;23.298;2023-03-20T12:45:09;95239.97;;;28.69;21.96
7182;BME280;3632;42.724;23.298;2023-03-20T12:47:46;95292.28;;;28.99;22.27
7182;BME280;3632;42.724;23.298;2023-03-20T12:50:23;95284.03;;;28.79;22.77
7182;BME280;3632;42.724;23.298;2023-03-20T12:52:59;95248.03;;;28.39;21.99
7182;BME280;3632;42.724;23.298;2023-03-20T12:55:39;95271.28;;;28.71;21.94
7182;BME280;3632;42.724;23.298;2023-03-20T12:58:18;95266.19;;;28.29;22.77
7182;BME280;3632;42.724;23.298;2023-03-20T13:00:54;95268.13;;;27.99;23.74
7182;BME280;3632;42.724;23.298;2023-03-20T13:03:37;95269.16;;;28.09;23.90
7182;BME280;3632;42.724;23.298;2023-03-20T13:06:13;95261.50;;;28.31;22.65
7182;BME280;3632;42.724;23.298;2023-03-20T13:11:52;95230.28;;;28.18;22.68
7182;BME280;3632;42.724;23.298;2023-03-20T13:14:34;95081.00;;;27.71;22.27
7182;BME280;3632;42.724;23.298;2023-03-20T13:17:14;94976.25;;;27.20;22.52
7182;BME280;3632;42.724;23.298;2023-03-20T13:19:50;95246.09;;;28.98;23.12
7182;BME280;3632;42.724;23.298;2023-03-20T13:22:25;95200.66;;;28.81;22.51
7182;BME280;3632;42.724;23.298;2023-03-20T13:25:02;95242.47;;;29.44;20.99
7182;BME280;3632;42.724;23.298;2023-03-20T13:27:37;95023.06;;;27.68;21.22
7182;BME280;3632;42.724;23.298;2023-03-20T13:30:16;95194.34;;;29.10;21.31
7182;BME280;3632;42.724;23.298;2023-03-20T13:32:53;95114.22;;;28.46;20.31
7182;BME280;3632;42.724;23.298;2023-03-20T13:35:30;95176.19;;;28.52;20.69
7182;BME280;3632;42.724;23.298;2023-03-20T13:38:09;95227.44;;;28.31;21.28
7182;BME280;3632;42.724;23.298;2023-03-20T13:40:39;95219.22;;;28.28;21.95
7182;BME280;3632;42.724;23.298;2023-03-20T13:43:25;95191.59;;;28.48;21.18
7182;BME280;3632;42.724;23.298;2023-03-20T13:46:00;95168.34;;;28.12;21.09